createdAt,value
2018-05-18T00:00:20.580Z,95.36
2018-05-18T00:01:20.494Z,95.84
2018-05-18T00:02:20.426Z,96.32
2018-05-18T00:03:20.343Z,96.70
2018-05-18T00:04:20.274Z,97.75
2018-05-18T00:05:20.195Z,97.46
2018-05-18T00:06:20.122Z,98.79
2018-05-18T00:07:20.040Z,98.70
2018-05-18T00:08:19.969Z,98.70
2018-05-18T00:09:19.889Z,99.08
2018-05-18T00:10:19.823Z,98.89
2018-05-18T00:11:19.735Z,99.27
2018-05-18T00:12:19.669Z,98.99
2018-05-18T00:13:19.585Z,97.46
2018-05-18T00:14:19.516Z,97.27
2018-05-18T00:15:19.431Z,97.75
2018-05-18T00:16:19.362Z,97.27
2018-05-18T00:17:19.281Z,97.36
2018-05-18T00:18:19.207Z,97.27
2018-05-18T00:19:19.130Z,97.46
2018-05-18T00:20:19.059Z,97.65
2018-05-18T00:21:18.982Z,97.94
2018-05-18T00:22:18.910Z,97.84
2018-05-18T00:23:18.832Z,98.03
2018-05-18T00:24:19.757Z,98.03
2018-05-18T00:25:18.674Z,97.84
2018-05-18T00:26:18.605Z,97.94
2018-05-18T00:27:18.519Z,98.13
2018-05-18T00:28:18.449Z,98.32
2018-05-18T00:29:18.366Z,97.84
2018-05-18T00:30:18.310Z,98.22
2018-05-18T00:31:18.216Z,98.60
2018-05-18T00:32:18.147Z,98.89
2018-05-18T00:33:18.064Z,98.51
2018-05-18T00:34:17.999Z,98.22
2018-05-18T00:35:17.909Z,98.03
2018-05-18T00:36:17.844Z,98.13
2018-05-18T00:37:17.759Z,98.41
2018-05-18T00:38:17.688Z,98.22
2018-05-18T00:39:17.601Z,98.22
2018-05-18T00:40:17.535Z,98.89
2018-05-18T00:41:17.454Z,98.70
2018-05-18T00:42:17.449Z,98.51
2018-05-18T00:43:17.303Z,98.60
2018-05-18T00:44:17.231Z,98.70
2018-05-18T00:45:17.149Z,98.60
2018-05-18T00:46:17.079Z,98.79
2018-05-18T00:47:16.997Z,98.79
2018-05-18T00:48:16.925Z,98.51
2018-05-18T00:49:16.841Z,98.60
2018-05-18T00:50:16.776Z,98.60
2018-05-18T00:51:16.696Z,98.89
2018-05-18T00:52:16.624Z,98.79
2018-05-18T00:53:16.542Z,98.99
2018-05-18T00:54:16.466Z,98.51
2018-05-18T00:55:16.393Z,98.99
2018-05-18T00:56:16.317Z,98.51
2018-05-18T00:57:16.236Z,99.08
2018-05-18T00:58:16.171Z,98.70
2018-05-18T00:59:16.079Z,98.51
2018-05-18T01:00:16.017Z,98.89
2018-05-18T01:01:15.931Z,98.99
2018-05-18T01:02:15.857Z,98.32
2018-05-18T01:03:15.778Z,98.70
2018-05-18T01:04:15.707Z,98.03
2018-05-18T01:05:15.626Z,97.94
2018-05-18T01:06:15.561Z,98.70
2018-05-18T01:07:15.469Z,98.70
2018-05-18T01:08:15.407Z,98.51
2018-05-18T01:09:15.319Z,98.51
2018-05-18T01:10:15.251Z,99.37
2018-05-18T01:11:15.169Z,99.08
2018-05-18T01:12:15.096Z,98.70
2018-05-18T01:13:15.015Z,98.89
2018-05-18T01:14:14.946Z,98.79
2018-05-18T01:15:14.861Z,98.79
2018-05-18T01:16:14.792Z,98.79
2018-05-18T01:17:14.709Z,98.22
2018-05-18T01:18:14.639Z,98.89
2018-05-18T01:19:14.561Z,98.94
2018-05-18T01:20:14.487Z,98.60
2018-05-18T01:21:14.405Z,98.74
2018-05-18T01:22:14.334Z,98.55
2018-05-18T01:23:14.253Z,97.94
2018-05-18T01:24:14.183Z,98.46
2018-05-18T01:25:14.096Z,98.65
2018-05-18T01:26:14.033Z,98.74
2018-05-18T01:27:13.949Z,98.60
2018-05-18T01:28:13.878Z,98.55
2018-05-18T01:29:13.790Z,98.74
2018-05-18T01:30:13.729Z,98.84
2018-05-18T01:31:13.644Z,98.74
2018-05-18T01:32:13.572Z,99.13
2018-05-18T01:33:13.488Z,99.22
2018-05-18T01:34:13.420Z,98.94
2018-05-18T01:35:13.334Z,99.41
2018-05-18T01:36:13.264Z,99.22
2018-05-18T01:37:13.183Z,99.41
2018-05-18T01:38:13.120Z,99.41
2018-05-18T01:39:13.029Z,99.13
2018-05-18T01:40:12.962Z,98.65
2018-05-18T01:41:12.875Z,99.03
2018-05-18T01:42:12.805Z,98.65
2018-05-18T01:43:12.720Z,98.27
2018-05-18T01:44:12.652Z,98.55
2018-05-18T01:45:12.576Z,98.94
2018-05-18T01:46:12.503Z,98.55
2018-05-18T01:47:12.417Z,98.65
2018-05-18T01:48:12.349Z,98.46
2018-05-18T01:49:12.263Z,98.65
2018-05-18T01:50:12.200Z,99.03
2018-05-18T01:51:12.111Z,98.55
2018-05-18T01:52:12.044Z,98.74
2018-05-18T01:53:11.961Z,99.32
2018-05-18T01:54:11.889Z,98.84
2018-05-18T01:55:11.807Z,99.41
2018-05-18T01:56:11.737Z,99.41
2018-05-18T01:57:11.652Z,99.03
2018-05-18T01:58:11.583Z,99.03
2018-05-18T01:59:11.499Z,99.69
2018-05-18T02:00:11.441Z,99.60
2018-05-18T02:01:11.346Z,99.60
2018-05-18T02:02:11.278Z,99.22
2018-05-18T02:03:11.191Z,99.51
2018-05-18T02:04:11.123Z,99.69
2018-05-18T02:05:11.042Z,99.79
2018-05-18T02:06:10.973Z,99.98
2018-05-18T02:07:10.890Z,99.13
2018-05-18T02:08:10.822Z,99.13
2018-05-18T02:09:10.736Z,99.03
2018-05-18T02:10:10.672Z,99.13
2018-05-18T02:11:10.590Z,99.60
2018-05-18T02:12:10.510Z,99.60
2018-05-18T02:13:10.428Z,99.41
2018-05-18T02:14:10.367Z,99.79
2018-05-18T02:15:10.274Z,99.98
2018-05-18T02:16:10.212Z,99.98
2018-05-18T02:17:10.121Z,99.79
2018-05-18T02:18:10.054Z,99.69
2018-05-18T02:19:09.969Z,99.79
2018-05-18T02:20:09.900Z,99.69
2018-05-18T02:21:09.816Z,99.69
2018-05-18T02:22:09.750Z,99.79
2018-05-18T02:23:09.660Z,99.89
2018-05-18T02:24:10.592Z,99.98
2018-05-18T02:25:09.510Z,99.99
2018-05-18T02:26:09.437Z,99.69
2018-05-18T02:27:09.355Z,99.69
2018-05-18T02:28:09.290Z,99.98
2018-05-18T02:29:09.202Z,99.69
2018-05-18T02:30:09.137Z,99.99
2018-05-18T02:31:09.046Z,99.98
2018-05-18T02:32:08.987Z,99.98
2018-05-18T02:33:08.896Z,99.98
2018-05-18T02:34:08.828Z,99.79
2018-05-18T02:35:08.747Z,99.79
2018-05-18T02:36:08.672Z,99.99
2018-05-18T02:37:08.599Z,99.79
2018-05-18T02:38:08.523Z,99.99
2018-05-18T02:39:08.432Z,99.89
2018-05-18T02:40:08.369Z,99.99
2018-05-18T02:41:08.288Z,99.89
2018-05-18T02:42:08.218Z,99.79
2018-05-18T02:43:08.136Z,99.69
2018-05-18T02:44:08.061Z,99.79
2018-05-18T02:45:07.977Z,99.99
2018-05-18T02:46:07.908Z,99.99
2018-05-18T02:47:07.823Z,99.99
2018-05-18T02:48:07.768Z,99.99
2018-05-18T02:49:07.678Z,99.99
2018-05-18T02:50:07.601Z,99.98
2018-05-18T02:51:07.521Z,99.98
2018-05-18T02:52:07.454Z,99.99
2018-05-18T02:53:07.366Z,99.99
2018-05-18T02:54:07.292Z,99.99
2018-05-18T02:55:07.213Z,99.99
2018-05-18T02:56:08.144Z,99.98
2018-05-18T02:57:07.063Z,99.79
2018-05-18T02:58:06.988Z,99.98
2018-05-18T02:59:06.910Z,99.98
2018-05-18T03:00:06.837Z,99.99
2018-05-18T03:01:06.754Z,99.99
2018-05-18T03:02:06.684Z,99.99
2018-05-18T03:03:06.598Z,99.99
2018-05-18T03:04:06.536Z,99.99
2018-05-18T03:05:06.446Z,99.99
2018-05-18T03:06:06.376Z,99.99
2018-05-18T03:07:06.289Z,99.99
2018-05-18T03:08:06.221Z,99.99
2018-05-18T03:09:06.146Z,99.99
2018-05-18T03:10:06.072Z,99.99
2018-05-18T03:11:05.985Z,99.99
2018-05-18T03:12:05.911Z,99.99
2018-05-18T03:13:05.829Z,99.99
2018-05-18T03:14:05.759Z,99.99
2018-05-18T03:15:05.676Z,99.99
2018-05-18T03:16:05.610Z,99.99
2018-05-18T03:17:05.524Z,99.99
2018-05-18T03:18:05.453Z,99.99
2018-05-18T03:19:05.369Z,99.99
2018-05-18T03:20:05.299Z,99.99
2018-05-18T03:21:05.358Z,99.99
2018-05-18T03:22:05.150Z,99.99
2018-05-18T03:23:05.064Z,99.99
2018-05-18T03:24:04.993Z,99.99
2018-05-18T03:25:04.908Z,99.99
2018-05-18T03:26:04.839Z,99.99
2018-05-18T03:27:04.756Z,99.99
2018-05-18T03:28:04.685Z,99.99
2018-05-18T03:29:04.602Z,99.99
2018-05-18T03:30:04.532Z,99.99
2018-05-18T03:31:04.451Z,99.99
2018-05-18T03:32:04.381Z,99.99
2018-05-18T03:33:04.295Z,99.99
2018-05-18T03:34:04.227Z,99.99
2018-05-18T03:35:04.146Z,99.99
2018-05-18T03:36:04.073Z,99.99
2018-05-18T03:37:03.989Z,99.99
2018-05-18T03:38:04.920Z,99.99
2018-05-18T03:39:03.841Z,99.99
2018-05-18T03:40:03.805Z,99.99
2018-05-18T03:41:03.681Z,99.99
2018-05-18T03:42:03.720Z,99.99
2018-05-18T03:43:03.528Z,99.99
2018-05-18T03:44:03.524Z,99.99
2018-05-18T03:45:03.376Z,99.99
2018-05-18T03:46:03.333Z,99.99
2018-05-18T03:47:03.222Z,99.99
2018-05-18T03:48:03.242Z,99.99
2018-05-18T03:49:03.072Z,99.99
2018-05-18T03:50:03.055Z,99.99
2018-05-18T03:51:02.917Z,99.99
2018-05-18T03:52:02.867Z,99.99
2018-05-18T03:53:02.760Z,99.99
2018-05-18T03:54:02.706Z,99.99
2018-05-18T03:55:02.610Z,99.99
2018-05-18T03:56:02.579Z,99.99
2018-05-18T03:57:02.456Z,99.99
2018-05-18T03:58:02.492Z,99.99
2018-05-18T03:59:02.307Z,99.99
2018-05-18T04:00:02.299Z,99.99
2018-05-18T04:01:02.148Z,99.99
2018-05-18T04:02:02.109Z,99.99
2018-05-18T04:03:01.995Z,99.99
2018-05-18T04:04:02.023Z,99.99
2018-05-18T04:05:01.843Z,99.99
2018-05-18T04:06:01.825Z,99.99
2018-05-18T04:07:01.687Z,99.99
2018-05-18T04:08:01.635Z,99.99
2018-05-18T04:09:01.534Z,99.99
2018-05-18T04:10:01.550Z,99.99
2018-05-18T04:11:01.383Z,99.99
2018-05-18T04:12:01.359Z,99.99
2018-05-18T04:13:01.239Z,99.99
2018-05-18T04:14:01.267Z,99.99
2018-05-18T04:15:01.079Z,99.99
2018-05-18T04:16:01.072Z,99.99
2018-05-18T04:17:00.925Z,99.99
2018-05-18T04:18:05.091Z,99.99
2018-05-18T04:19:00.767Z,99.99
2018-05-18T04:20:00.789Z,99.99
2018-05-18T04:21:00.618Z,99.99
2018-05-18T04:22:00.548Z,99.99
2018-05-18T04:23:00.464Z,99.99
2018-05-18T04:24:00.396Z,99.99
2018-05-18T04:25:00.316Z,99.99
2018-05-18T04:26:00.246Z,99.99
2018-05-18T04:27:00.160Z,99.99
2018-05-18T04:28:00.088Z,99.99
2018-05-18T04:29:00.007Z,99.99
2018-05-18T04:29:59.984Z,99.99
2018-05-18T04:30:59.856Z,99.99
2018-05-18T04:31:59.781Z,99.99
2018-05-18T04:32:59.700Z,99.99
2018-05-18T04:33:59.630Z,99.99
2018-05-18T04:34:59.546Z,99.99
2018-05-18T04:35:59.479Z,99.99
2018-05-18T04:36:59.399Z,99.99
2018-05-18T04:37:59.325Z,99.99
2018-05-18T04:38:59.240Z,99.99
2018-05-18T04:39:59.172Z,99.99
2018-05-18T04:40:59.090Z,99.99
2018-05-18T04:41:59.020Z,99.99
2018-05-18T04:42:58.935Z,99.99
2018-05-18T04:43:58.866Z,99.99
2018-05-18T04:44:58.781Z,99.99
2018-05-18T04:45:58.717Z,99.99
2018-05-18T04:46:58.634Z,99.99
2018-05-18T04:47:58.561Z,99.99
2018-05-18T04:48:58.479Z,99.99
2018-05-18T04:49:58.404Z,99.99
2018-05-18T04:50:58.328Z,99.99
2018-05-18T04:51:58.345Z,99.99
2018-05-18T04:52:58.178Z,99.99
2018-05-18T04:53:58.111Z,99.99
2018-05-18T04:54:58.028Z,99.99
2018-05-18T04:55:57.957Z,99.99
2018-05-18T04:56:57.871Z,99.99
2018-05-18T04:57:57.802Z,99.85
2018-05-18T04:58:57.771Z,99.75
2018-05-18T04:59:57.649Z,99.27
2018-05-18T05:00:57.559Z,98.99
2018-05-18T05:01:58.494Z,98.13
2018-05-18T05:02:57.415Z,97.56
2018-05-18T05:03:57.344Z,97.66
2018-05-18T05:04:57.260Z,97.85
2018-05-18T05:05:57.189Z,96.98
2018-05-18T05:06:57.106Z,96.61
2018-05-18T05:07:57.121Z,95.94
2018-05-18T05:08:56.954Z,95.65
2018-05-18T05:09:56.886Z,95.56
2018-05-18T05:10:56.798Z,95.75
2018-05-18T05:11:56.845Z,95.65
2018-05-18T05:12:56.662Z,96.22
2018-05-18T05:13:56.650Z,96.22
2018-05-18T05:14:56.499Z,96.32
2018-05-18T05:15:56.462Z,95.75
2018-05-18T05:16:56.347Z,95.56
2018-05-18T05:17:56.379Z,94.89
2018-05-18T05:18:56.195Z,95.08
2018-05-18T05:19:56.137Z,94.41
2018-05-18T05:20:56.041Z,94.79
2018-05-18T05:21:55.974Z,94.12
2018-05-18T05:22:55.889Z,94.51
2018-05-18T05:23:55.825Z,94.12
2018-05-18T05:24:55.739Z,93.27
2018-05-18T05:25:55.669Z,93.65
2018-05-18T05:26:55.582Z,93.65
2018-05-18T05:27:55.519Z,94.12
2018-05-18T05:28:55.434Z,93.46
2018-05-18T05:29:55.427Z,92.98
2018-05-18T05:30:55.289Z,93.41
2018-05-18T05:31:55.233Z,93.46
2018-05-18T05:32:55.133Z,93.65
2018-05-18T05:33:55.144Z,93.08
2018-05-18T05:34:54.980Z,93.17
2018-05-18T05:35:54.953Z,92.88
2018-05-18T05:36:54.826Z,93.17
2018-05-18T05:37:54.875Z,93.22
2018-05-18T05:38:55.598Z,92.41
2018-05-18T05:39:54.671Z,92.69
2018-05-18T05:40:54.528Z,92.83
2018-05-18T05:41:54.482Z,92.65
2018-05-18T05:42:54.370Z,92.65
2018-05-18T05:43:54.392Z,92.26
2018-05-18T05:44:54.220Z,92.46
2018-05-18T05:45:54.201Z,92.32
2018-05-18T05:46:54.079Z,92.36
2018-05-18T05:47:54.010Z,92.32
2018-05-18T05:48:53.914Z,92.17
2018-05-18T05:49:56.488Z,92.07
2018-05-18T05:50:53.770Z,92.12
2018-05-18T05:51:53.732Z,92.41
2018-05-18T05:52:53.687Z,92.55
2018-05-18T05:53:53.644Z,92.65
2018-05-18T05:54:53.460Z,92.36
2018-05-18T05:55:53.451Z,92.36
2018-05-18T05:56:53.316Z,92.26
2018-05-18T05:57:53.259Z,92.65
2018-05-18T05:58:53.154Z,91.88
2018-05-18T05:59:53.250Z,91.88
2018-05-18T06:00:53.004Z,91.88
2018-05-18T06:01:52.980Z,91.31
2018-05-18T06:02:52.850Z,91.02
2018-05-18T06:03:52.891Z,90.83
2018-05-18T06:04:52.703Z,90.45
2018-05-18T06:05:52.700Z,90.64
2018-05-18T06:06:52.555Z,90.64
2018-05-18T06:07:52.512Z,90.64
2018-05-18T06:08:52.401Z,90.17
2018-05-18T06:09:52.421Z,89.97
2018-05-18T06:10:52.250Z,89.97
2018-05-18T06:11:52.227Z,89.78
2018-05-18T06:12:52.092Z,89.02
2018-05-18T06:13:52.146Z,89.21
2018-05-18T06:14:51.944Z,89.02
2018-05-18T06:15:51.950Z,89.12
2018-05-18T06:16:51.791Z,88.92
2018-05-18T06:17:51.727Z,89.12
2018-05-18T06:18:51.642Z,89.21
2018-05-18T06:19:51.671Z,88.92
2018-05-18T06:20:51.490Z,89.25
2018-05-18T06:21:51.481Z,89.35
2018-05-18T06:22:51.334Z,88.68
2018-05-18T06:23:51.291Z,87.63
2018-05-18T06:24:51.189Z,87.35
2018-05-18T06:25:51.201Z,86.96
2018-05-18T06:26:51.039Z,87.25
2018-05-18T06:27:51.009Z,87.35
2018-05-18T06:28:50.946Z,87.15
2018-05-18T06:29:50.921Z,86.96
2018-05-18T06:30:50.739Z,87.44
2018-05-18T06:31:50.731Z,87.44
2018-05-18T06:32:50.583Z,87.54
2018-05-18T06:33:50.544Z,87.06
2018-05-18T06:34:50.449Z,87.44
2018-05-18T06:35:50.359Z,87.54
2018-05-18T06:36:50.281Z,87.73
2018-05-18T06:37:50.263Z,87.44
2018-05-18T06:38:50.128Z,88.20
2018-05-18T06:39:50.227Z,88.30
2018-05-18T06:40:49.971Z,88.40
2018-05-18T06:41:49.907Z,88.54
2018-05-18T06:42:49.822Z,87.68
2018-05-18T06:43:49.783Z,87.63
2018-05-18T06:44:49.669Z,87.68
2018-05-18T06:45:49.697Z,88.25
2018-05-18T06:46:49.525Z,87.48
2018-05-18T06:47:49.510Z,87.29
2018-05-18T06:48:49.370Z,86.72
2018-05-18T06:49:49.322Z,86.24
2018-05-18T06:50:49.219Z,85.86
2018-05-18T06:51:49.228Z,86.43
2018-05-18T06:52:49.071Z,87.10
2018-05-18T06:53:49.038Z,87.29
2018-05-18T06:54:48.917Z,87.01
2018-05-18T06:55:48.946Z,86.72
2018-05-18T06:56:48.773Z,86.34
2018-05-18T06:57:48.762Z,85.81
2018-05-18T06:58:48.661Z,85.42
2018-05-18T06:59:48.568Z,85.24
2018-05-18T07:00:48.466Z,85.05
2018-05-18T07:01:48.481Z,84.76
2018-05-18T07:02:48.317Z,84.85
2018-05-18T07:03:48.287Z,84.28
2018-05-18T07:04:48.164Z,84.09
2018-05-18T07:05:48.198Z,84.09
2018-05-18T07:06:48.032Z,83.80
2018-05-18T07:07:48.011Z,84.38
2018-05-18T07:08:47.871Z,84.56
2018-05-18T07:09:47.818Z,84.23
2018-05-18T07:10:47.715Z,83.27
2018-05-18T07:11:47.639Z,82.98
2018-05-18T07:12:47.632Z,82.70
2018-05-18T07:13:47.492Z,81.84
2018-05-18T07:14:47.443Z,81.55
2018-05-18T07:15:47.340Z,81.74
2018-05-18T07:16:47.367Z,81.74
2018-05-18T07:17:47.214Z,81.88
2018-05-18T07:18:47.161Z,80.35
2018-05-18T07:19:47.039Z,79.00
2018-05-18T07:20:47.078Z,78.63
2018-05-18T07:21:46.891Z,78.81
2018-05-18T07:22:46.887Z,78.63
2018-05-18T07:23:46.745Z,77.76
2018-05-18T07:24:46.700Z,78.05
2018-05-18T07:25:46.598Z,77.95
2018-05-18T07:26:46.523Z,77.86
2018-05-18T07:27:46.441Z,78.81
2018-05-18T07:28:46.413Z,78.53
2018-05-18T07:29:46.301Z,77.67
2018-05-18T07:30:46.322Z,77.48
2018-05-18T07:31:46.144Z,77.23
2018-05-18T07:32:46.134Z,77.51
2018-05-18T07:33:45.998Z,77.51
2018-05-18T07:34:46.042Z,77.61
2018-05-18T07:35:45.848Z,77.36
2018-05-18T07:36:45.852Z,76.69
2018-05-18T07:37:45.701Z,77.08
2018-05-18T07:38:45.667Z,76.50
2018-05-18T07:39:45.549Z,76.02
2018-05-18T07:40:45.575Z,75.54
2018-05-18T07:41:45.404Z,77.55
2018-05-18T07:42:45.386Z,79.03
2018-05-18T07:43:45.326Z,78.17
2018-05-18T07:44:45.294Z,79.41
2018-05-18T07:45:45.110Z,76.82
2018-05-18T07:46:45.107Z,76.48
2018-05-18T07:47:44.959Z,76.19
2018-05-18T07:48:44.914Z,75.14
2018-05-18T07:49:44.814Z,75.33
2018-05-18T07:50:44.824Z,74.66
2018-05-18T07:51:44.672Z,74.47
2018-05-18T07:52:44.636Z,73.80
2018-05-18T07:53:44.525Z,73.03
2018-05-18T07:54:44.547Z,72.74
2018-05-18T07:55:44.374Z,72.84
2018-05-18T07:56:44.353Z,72.94
2018-05-18T07:57:44.229Z,73.80
2018-05-18T07:58:44.267Z,73.41
2018-05-18T07:59:44.087Z,73.32
2018-05-18T08:00:44.075Z,74.27
2018-05-18T08:01:43.934Z,76.00
2018-05-18T08:02:43.891Z,75.52
2018-05-18T08:03:43.787Z,75.29
2018-05-18T08:04:43.795Z,74.72
2018-05-18T08:05:43.642Z,73.76
2018-05-18T08:06:43.608Z,73.57
2018-05-18T08:07:43.581Z,73.28
2018-05-18T08:08:43.518Z,72.61
2018-05-18T08:09:43.349Z,72.99
2018-05-18T08:10:43.287Z,73.95
2018-05-18T08:11:43.201Z,73.99
2018-05-18T08:12:43.134Z,73.13
2018-05-18T08:13:43.056Z,73.22
2018-05-18T08:14:43.046Z,72.94
2018-05-18T08:15:42.911Z,73.70
2018-05-18T08:16:42.975Z,72.94
2018-05-18T08:17:42.769Z,72.84
2018-05-18T08:18:42.767Z,71.78
2018-05-18T08:19:42.624Z,72.30
2018-05-18T08:20:42.576Z,71.34
2018-05-18T08:21:42.488Z,71.82
2018-05-18T08:22:42.489Z,70.76
2018-05-18T08:23:42.328Z,70.80
2018-05-18T08:24:42.300Z,72.33
2018-05-18T08:25:42.176Z,71.76
2018-05-18T08:26:42.205Z,70.23
2018-05-18T08:27:42.094Z,70.90
2018-05-18T08:28:42.016Z,70.86
2018-05-18T08:29:41.888Z,70.80
2018-05-18T08:30:41.933Z,71.28
2018-05-18T08:31:41.748Z,71.19
2018-05-18T08:32:41.747Z,72.08
2018-05-18T08:33:41.602Z,71.61
2018-05-18T08:34:41.563Z,70.64
2018-05-18T08:35:41.457Z,72.47
2018-05-18T08:36:41.460Z,72.05
2018-05-18T08:37:41.315Z,72.72
2018-05-18T08:38:41.268Z,72.05
2018-05-18T08:39:41.167Z,72.81
2018-05-18T08:40:41.181Z,73.00
2018-05-18T08:41:41.020Z,72.72
2018-05-18T08:42:41.040Z,71.09
2018-05-18T08:43:40.877Z,70.45
2018-05-18T08:44:40.849Z,70.84
2018-05-18T08:45:40.732Z,71.03
2018-05-18T08:46:40.759Z,70.13
2018-05-18T08:47:40.588Z,69.26
2018-05-18T08:48:40.570Z,69.84
2018-05-18T08:49:40.443Z,68.73
2018-05-18T08:50:40.477Z,68.24
2018-05-18T08:51:40.299Z,69.40
2018-05-18T08:52:40.283Z,67.57
2018-05-18T08:53:40.156Z,68.05
2018-05-18T08:54:40.196Z,69.01
2018-05-18T08:55:40.018Z,69.91
2018-05-18T08:56:40.006Z,68.66
2018-05-18T08:57:39.869Z,67.22
2018-05-18T08:58:39.815Z,67.03
2018-05-18T08:59:39.726Z,66.84
2018-05-18T09:00:39.747Z,65.59
2018-05-18T09:01:39.583Z,67.13
2018-05-18T09:02:39.533Z,66.84
2018-05-18T09:03:39.441Z,67.03
2018-05-18T09:04:39.443Z,65.97
2018-05-18T09:05:39.295Z,64.37
2018-05-18T09:06:39.252Z,66.20
2018-05-18T09:07:39.149Z,65.91
2018-05-18T09:08:39.168Z,66.77
2018-05-18T09:09:39.011Z,67.38
2018-05-18T09:10:38.972Z,64.89
2018-05-18T09:11:38.867Z,66.10
2018-05-18T09:12:38.887Z,66.30
2018-05-18T09:13:38.726Z,64.40
2018-05-18T09:14:38.691Z,64.18
2018-05-18T09:15:38.584Z,63.12
2018-05-18T09:16:38.601Z,64.66
2018-05-18T09:17:38.521Z,64.85
2018-05-18T09:18:38.416Z,65.40
2018-05-18T09:19:38.296Z,66.93
2018-05-18T09:20:38.325Z,67.32
2018-05-18T09:21:38.153Z,67.22
2018-05-18T09:22:38.139Z,66.36
2018-05-18T09:23:38.010Z,67.99
2018-05-18T09:24:38.046Z,68.21
2018-05-18T09:25:37.870Z,67.74
2018-05-18T09:26:37.853Z,68.12
2018-05-18T09:27:37.728Z,66.39
2018-05-18T09:28:37.772Z,65.53
2018-05-18T09:29:37.587Z,66.20
2018-05-18T09:30:37.575Z,67.10
2018-05-18T09:31:37.445Z,67.00
2018-05-18T09:32:37.480Z,65.17
2018-05-18T09:33:37.302Z,64.79
2018-05-18T09:34:37.289Z,67.22
2018-05-18T09:35:37.160Z,65.69
2018-05-18T09:36:37.198Z,65.40
2018-05-18T09:37:37.017Z,64.34
2018-05-18T09:38:37.012Z,63.76
2018-05-18T09:39:36.875Z,63.15
2018-05-18T09:40:36.919Z,63.73
2018-05-18T09:41:36.736Z,64.69
2018-05-18T09:42:36.726Z,65.37
2018-05-18T09:43:36.592Z,64.15
2018-05-18T09:44:36.637Z,64.82
2018-05-18T09:45:36.453Z,64.63
2018-05-18T09:46:36.446Z,65.88
2018-05-18T09:47:36.312Z,65.40
2018-05-18T09:48:36.364Z,65.30
2018-05-18T09:49:36.171Z,66.49
2018-05-18T09:50:36.164Z,67.51
2018-05-18T09:51:36.028Z,67.80
2018-05-18T09:52:35.977Z,68.76
2018-05-18T09:53:35.892Z,66.65
2018-05-18T09:54:35.885Z,65.46
2018-05-18T09:55:35.837Z,65.46
2018-05-18T09:56:35.679Z,64.60
2018-05-18T09:57:35.703Z,63.35
2018-05-18T09:58:35.532Z,63.35
2018-05-18T09:59:35.510Z,63.35
2018-05-18T10:00:35.445Z,63.45
2018-05-18T10:01:35.418Z,64.31
2018-05-18T10:02:35.253Z,63.15
2018-05-18T10:03:35.228Z,63.54
2018-05-18T10:04:35.114Z,65.20
2018-05-18T10:05:35.142Z,65.30
2018-05-18T10:06:34.973Z,68.19
2018-05-18T10:07:34.944Z,68.38
2018-05-18T10:08:34.833Z,67.03
2018-05-18T10:09:34.861Z,66.65
2018-05-18T10:10:34.692Z,66.65
2018-05-18T10:11:34.672Z,66.84
2018-05-18T10:12:34.553Z,65.59
2018-05-18T10:13:34.579Z,64.82
2018-05-18T10:14:34.411Z,64.63
2018-05-18T10:15:34.382Z,66.84
2018-05-18T10:16:34.271Z,66.17
2018-05-18T10:17:34.300Z,66.94
2018-05-18T10:18:34.220Z,68.19
2018-05-18T10:19:34.108Z,66.55
2018-05-18T10:20:33.985Z,67.51
2018-05-18T10:21:34.017Z,66.97
2018-05-18T10:22:33.849Z,66.68
2018-05-18T10:23:33.828Z,63.12
2018-05-18T10:24:33.706Z,62.74
2018-05-18T10:25:33.737Z,61.97
2018-05-18T10:26:33.569Z,61.58
2018-05-18T10:27:33.546Z,61.49
2018-05-18T10:28:33.425Z,61.29
2018-05-18T10:29:33.457Z,61.58
2018-05-18T10:30:33.290Z,61.71
2018-05-18T10:31:33.266Z,61.42
2018-05-18T10:32:33.146Z,61.42
2018-05-18T10:33:33.178Z,61.32
2018-05-18T10:34:33.006Z,60.55
2018-05-18T10:35:32.985Z,60.46
2018-05-18T10:36:32.871Z,62.29
2018-05-18T10:37:32.891Z,64.69
2018-05-18T10:38:32.730Z,63.64
2018-05-18T10:39:32.755Z,63.06
2018-05-18T10:40:32.585Z,60.94
2018-05-18T10:41:32.611Z,61.22
2018-05-18T10:42:32.447Z,61.22
2018-05-18T10:43:32.425Z,61.71
2018-05-18T10:44:32.313Z,62.38
2018-05-18T10:45:32.333Z,62.35
2018-05-18T10:46:32.173Z,61.29
2018-05-18T10:47:32.141Z,61.29
2018-05-18T10:48:32.030Z,60.52
2018-05-18T10:49:32.049Z,61.39
2018-05-18T10:50:31.893Z,62.16
2018-05-18T10:51:31.842Z,60.55
2018-05-18T10:52:31.752Z,60.55
2018-05-18T10:53:31.683Z,62.35
2018-05-18T10:54:31.662Z,62.16
2018-05-18T10:55:31.539Z,60.81
2018-05-18T10:56:31.574Z,60.46
2018-05-18T10:57:31.403Z,60.94
2018-05-18T10:58:31.381Z,63.44
2018-05-18T10:59:31.282Z,64.25
2018-05-18T11:00:31.189Z,64.73
2018-05-18T11:01:31.308Z,63.38
2018-05-18T11:02:31.064Z,64.37
2018-05-18T11:03:30.985Z,61.25
2018-05-18T11:04:30.913Z,61.25
2018-05-18T11:05:30.937Z,60.58
2018-05-18T11:06:30.779Z,61.55
2018-05-18T11:07:30.740Z,60.27
2018-05-18T11:08:30.638Z,59.11
2018-05-18T11:09:30.576Z,60.27
2018-05-18T11:10:30.501Z,60.36
2018-05-18T11:11:30.435Z,60.87
2018-05-18T11:12:30.361Z,60.10
2018-05-18T11:13:30.298Z,60.58
2018-05-18T11:14:30.233Z,60.39
2018-05-18T11:15:30.157Z,60.00
2018-05-18T11:16:30.084Z,59.33
2018-05-18T11:17:30.028Z,60.07
2018-05-18T11:18:29.942Z,60.36
2018-05-18T11:19:29.885Z,60.17
2018-05-18T11:20:29.804Z,60.36
2018-05-18T11:21:29.747Z,59.94
2018-05-18T11:22:29.668Z,59.69
2018-05-18T11:23:29.607Z,59.97
2018-05-18T11:24:29.532Z,60.17
2018-05-18T11:25:29.470Z,59.88
2018-05-18T11:26:29.390Z,60.68
2018-05-18T11:27:29.334Z,59.01
2018-05-18T11:28:29.256Z,58.92
2018-05-18T11:29:29.191Z,59.97
2018-05-18T11:30:29.114Z,60.07
2018-05-18T11:31:29.055Z,61.00
2018-05-18T11:32:28.975Z,60.14
2018-05-18T11:33:28.913Z,59.69
2018-05-18T11:34:28.834Z,59.11
2018-05-18T11:35:28.785Z,60.27
2018-05-18T11:36:28.698Z,60.27
2018-05-18T11:37:28.637Z,60.07
2018-05-18T11:38:28.561Z,59.40
2018-05-18T11:39:28.496Z,58.24
2018-05-18T11:40:28.420Z,58.08
2018-05-18T11:41:28.362Z,63.38
2018-05-18T11:42:28.292Z,62.22
2018-05-18T11:43:28.227Z,57.79
2018-05-18T11:44:28.144Z,54.13
2018-05-18T11:45:28.090Z,54.42
2018-05-18T11:46:28.002Z,55.29
2018-05-18T11:47:27.948Z,56.25
2018-05-18T11:48:27.867Z,56.15
2018-05-18T11:49:27.819Z,56.99
2018-05-18T11:50:27.724Z,57.09
2018-05-18T11:51:27.664Z,59.88
2018-05-18T11:52:27.588Z,60.17
2018-05-18T11:53:27.534Z,60.55
2018-05-18T11:54:27.451Z,59.30
2018-05-18T11:55:27.389Z,58.53
2018-05-18T11:56:27.312Z,59.30
2018-05-18T11:57:27.250Z,59.72
2018-05-18T11:58:27.174Z,60.97
2018-05-18T11:59:27.120Z,59.62
2018-05-18T12:00:27.036Z,60.32
2018-05-18T12:01:26.975Z,59.75
2018-05-18T12:02:26.995Z,59.45
2018-05-18T12:03:26.841Z,57.92
2018-05-18T12:04:26.761Z,60.61
2018-05-18T12:05:26.699Z,60.74
2018-05-18T12:06:26.632Z,62.86
2018-05-18T12:07:26.566Z,62.48
2018-05-18T12:08:26.600Z,60.16
2018-05-18T12:09:26.421Z,60.26
2018-05-18T12:10:26.348Z,58.88
2018-05-18T12:11:26.362Z,57.14
2018-05-18T12:12:26.212Z,56.18
2018-05-18T12:13:26.149Z,57.92
2018-05-18T12:14:26.071Z,60.16
2018-05-18T12:15:26.013Z,59.78
2018-05-18T12:16:25.944Z,56.01
2018-05-18T12:17:25.879Z,54.18
2018-05-18T12:18:25.798Z,54.28
2018-05-18T12:19:25.737Z,53.89
2018-05-18T12:20:25.745Z,54.66
2018-05-18T12:21:25.597Z,57.27
2018-05-18T12:22:25.519Z,59.87
2018-05-18T12:23:25.461Z,57.07
2018-05-18T12:24:25.393Z,53.89
2018-05-18T12:25:25.325Z,54.28
2018-05-18T12:26:25.251Z,54.66
2018-05-18T12:27:25.195Z,54.38
2018-05-18T12:28:25.115Z,57.27
2018-05-18T12:29:25.050Z,55.24
2018-05-18T12:30:24.980Z,53.41
2018-05-18T12:31:24.915Z,53.99
2018-05-18T12:32:24.833Z,53.99
2018-05-18T12:33:24.778Z,53.99
2018-05-18T12:34:24.701Z,55.44
2018-05-18T12:35:24.638Z,57.07
2018-05-18T12:36:24.562Z,57.75
2018-05-18T12:37:24.503Z,54.60
2018-05-18T12:38:24.447Z,55.36
2018-05-18T12:39:24.365Z,55.94
2018-05-18T12:40:24.294Z,55.27
2018-05-18T12:41:24.231Z,55.46
2018-05-18T12:42:24.155Z,56.33
2018-05-18T12:43:24.092Z,57.87
2018-05-18T12:44:24.019Z,57.87
2018-05-18T12:45:23.956Z,56.14
2018-05-18T12:46:23.884Z,53.34
2018-05-18T12:47:23.820Z,53.05
2018-05-18T12:48:23.747Z,54.21
2018-05-18T12:49:23.684Z,53.73
2018-05-18T12:50:23.607Z,56.33
2018-05-18T12:51:23.551Z,58.26